Time;durP1;ratioP1;P1;durP2;ratioP2;P2;SDS_P1;SDS_P2;PMS_P1;PMS_P2;Temp;Humidity;BMP_temperature;BMP_pressure;BME280_temperature;BME280_humidity;BME280_pressure;Samples;Min_cycle;Max_cycle;Signal;HPM_P1;HPM_P2
2023/03/22 00:00:16;;;;;;;7.80;1.65;;;23.60;99.90;;;;;;5028682;28;20045;-63
2023/03/22 00:02:43;;;;;;;6.55;1.20;;;23.30;99.90;;;;;;5023360;28;20498;-64
2023/03/22 00:05:11;;;;;;;11.27;2.55;;;23.40;99.90;;;;;;5024847;28;20167;-63
2023/03/22 00:07:39;;;;;;;8.05;1.45;;;23.30;99.90;;;;;;5024073;28;20041;-64
2023/03/22 00:10:07;;;;;;;7.50;1.48;;;23.30;99.90;;;;;;5021166;28;20099;-64
2023/03/22 00:12:35;;;;;;;9.85;1.80;;;23.30;99.90;;;;;;5024989;28;20034;-64
2023/03/22 00:15:02;;;;;;;6.70;1.17;;;23.20;99.90;;;;;;5025337;28;20450;-64
2023/03/22 00:17:31;;;;;;;7.10;1.40;;;23.30;99.90;;;;;;5023786;28;20065;-63
2023/03/22 00:19:59;;;;;;;8.20;1.17;;;23.30;99.90;;;;;;5027104;28;20022;-63
2023/03/22 00:22:26;;;;;;;7.90;1.50;;;23.30;99.90;;;;;;5025748;28;20435;-64
2023/03/22 00:24:53;;;;;;;8.57;1.30;;;23.30;99.90;;;;;;5022357;28;20041;-64
2023/03/22 00:27:21;;;;;;;8.93;1.33;;;23.20;99.90;;;;;;5024984;28;20379;-63
2023/03/22 00:29:50;;;;;;;6.45;1.02;;;23.10;99.90;;;;;;5022974;28;20368;-63
2023/03/22 00:32:18;;;;;;;6.82;1.48;;;23.00;99.90;;;;;;5027599;28;20033;-64
2023/03/22 00:34:45;;;;;;;9.82;2.22;;;22.90;99.90;;;;;;5023904;28;20102;-64
2023/03/22 00:37:15;;;;;;;6.38;1.25;;;22.90;99.90;;;;;;5026938;28;20439;-64
2023/03/22 00:39:43;;;;;;;5.57;1.30;;;22.80;99.90;;;;;;5021908;28;20025;-64
2023/03/22 00:42:10;;;;;;;6.70;1.73;;;22.70;99.90;;;;;;5026025;28;20025;-64
2023/03/22 00:44:38;;;;;;;12.75;1.65;;;22.70;99.90;;;;;;5021588;28;20109;-64
2023/03/22 00:47:05;;;;;;;5.35;1.20;;;22.70;99.90;;;;;;5025811;28;20026;-65
2023/03/22 00:49:34;;;;;;;5.55;1.05;;;22.90;99.90;;;;;;5027815;28;20117;-64
2023/03/22 00:52:01;;;;;;;8.75;1.77;;;23.00;99.90;;;;;;5025672;28;20041;-64
2023/03/22 00:54:28;;;;;;;10.70;2.03;;;23.10;99.90;;;;;;5031852;28;20140;-64
2023/03/22 00:56:56;;;;;;;5.45;1.20;;;23.30;99.90;;;;;;5035333;28;20068;-64
2023/03/22 00:59:23;;;;;;;11.68;1.50;;;23.40;99.90;;;;;;5041312;28;20093;-64
2023/03/22 01:01:50;;;;;;;7.05;1.67;;;23.40;99.90;;;;;;5037749;28;20099;-64
2023/03/22 01:04:24;;;;;;;11.95;2.15;;;23.60;99.90;;;;;;5025864;28;20091;-62
2023/03/22 01:06:58;;;;;;;7.60;1.48;;;23.60;99.90;;;;;;5037822;28;20067;-64
2023/03/22 01:09:28;;;;;;;10.90;1.37;;;23.70;99.90;;;;;;5029040;28;20083;-64
2023/03/22 01:11:57;;;;;;;6.72;1.45;;;23.80;99.90;;;;;;5035638;28;20294;-64
2023/03/22 01:14:25;;;;;;;11.90;2.10;;;23.90;99.90;;;;;;5025300;28;20052;-65
2023/03/22 01:16:56;;;;;;;4.80;1.17;;;24.00;99.90;;;;;;5033898;28;20116;-64
2023/03/22 01:19:26;;;;;;;8.20;1.63;;;24.10;99.90;;;;;;5040202;28;20100;-64
2023/03/22 01:21:54;;;;;;;8.95;1.38;;;24.10;99.90;;;;;;5035423;28;20565;-64
2023/03/22 01:24:21;;;;;;;13.55;2.22;;;24.10;99.90;;;;;;5026550;28;20063;-63
2023/03/22 01:26:49;;;;;;;6.45;1.52;;;24.10;99.90;;;;;;5032237;28;20540;-64
2023/03/22 01:29:17;;;;;;;5.80;1.48;;;24.00;99.90;;;;;;5038016;28;20032;-64
2023/03/22 01:31:44;;;;;;;7.05;1.60;;;23.90;99.90;;;;;;5028508;28;20512;-63
2023/03/22 01:34:12;;;;;;;7.03;1.20;;;23.90;99.90;;;;;;5020367;28;20401;-64
2023/03/22 01:36:39;;;;;;;6.32;1.80;;;24.00;99.90;;;;;;5026865;28;20040;-63
2023/03/22 01:39:07;;;;;;;4.03;1.55;;;24.00;99.90;;;;;;5025569;28;20022;-64
2023/03/22 01:41:36;;;;;;;12.15;2.10;;;24.00;99.90;;;;;;5029119;28;20052;-64
2023/03/22 01:44:18;;;;;;;4.20;1.30;;;24.00;99.90;;;;;;5021303;28;20032;-65
2023/03/22 01:46:48;;;;;;;9.50;1.52;;;24.00;99.90;;;;;;5028054;28;20032;-64
2023/03/22 01:49:21;;;;;;;6.00;1.73;;;24.00;99.90;;;;;;5032556;28;20013;-65
2023/03/22 01:51:51;;;;;;;3.40;1.20;;;24.00;99.90;;;;;;5024894;28;20037;-64
2023/03/22 01:54:41;;;;;;;9.57;2.15;;;23.90;99.90;;;;;;5032827;28;20710;-64
2023/03/22 01:57:09;;;;;;;10.10;1.92;;;23.70;99.90;;;;;;5029225;28;20025;-63
2023/03/22 01:59:38;;;;;;;12.23;1.73;;;23.70;99.90;;;;;;5031171;28;20037;-63
2023/03/22 02:02:06;;;;;;;7.75;1.10;;;23.60;99.90;;;;;;5029488;28;20036;-64
2023/03/22 02:04:38;;;;;;;8.05;1.40;;;23.60;99.90;;;;;;5021903;28;20120;-64
2023/03/22 02:07:09;;;;;;;10.45;2.00;;;23.60;99.90;;;;;;5027783;28;20521;-64
2023/03/22 02:09:41;;;;;;;7.03;1.63;;;23.60;99.90;;;;;;5026982;28;20025;-64
2023/03/22 02:12:29;;;;;;;6.82;1.35;;;23.60;99.90;;;;;;5036085;28;20083;-63
2023/03/22 02:15:15;;;;;;;7.72;2.00;;;23.60;99.90;;;;;;5027209;28;20035;-64
2023/03/22 02:17:58;;;;;;;6.32;1.35;;;23.60;99.90;;;;;;5030641;28;20068;-64
2023/03/22 02:20:51;;;;;;;7.95;1.70;;;23.60;99.90;;;;;;5036486;28;20025;-64
2023/03/22 02:23:57;;;;;;;5.45;1.60;;;23.50;99.90;;;;;;5023060;28;20021;-64
2023/03/22 02:26:24;;;;;;;7.20;1.52;;;23.40;99.90;;;;;;5032131;28;20021;-64
2023/03/22 02:29:06;;;;;;;7.63;1.60;;;23.30;99.90;;;;;;5033300;28;20029;-63
2023/03/22 02:31:51;;;;;;;6.13;1.33;;;23.20;99.90;;;;;;5029656;28;20029;-65
2023/03/22 02:35:10;;;;;;;7.75;1.73;;;23.00;99.90;;;;;;5030423;28;20109;-66
2023/03/22 02:37:46;;;;;;;7.55;1.25;;;23.00;99.90;;;;;;5001895;28;20124;-66
2023/03/22 02:40:32;;;;;;;6.57;1.40;;;23.10;99.90;;;;;;5029972;28;20036;-67
2023/03/22 02:43:05;;;;;;;8.00;1.90;;;23.20;99.90;;;;;;5035359;28;20024;-67
2023/03/22 02:45:45;;;;;;;7.05;1.65;;;23.30;99.90;;;;;;5029473;28;20030;-66
2023/03/22 02:48:17;;;;;;;7.93;1.63;;;23.60;99.90;;;;;;5039844;28;20026;-66
2023/03/22 02:50:56;;;;;;;7.63;1.63;;;23.90;99.90;;;;;;5032904;28;20051;-66
2023/03/22 02:53:36;;;;;;;9.70;2.05;;;24.10;99.90;;;;;;5024366;28;20034;-65
2023/03/22 02:56:25;;;;;;;6.70;1.60;;;24.30;99.90;;;;;;5028882;28;20115;-65
2023/03/22 02:58:56;;;;;;;4.00;1.38;;;24.50;99.90;;;;;;5033323;28;20025;-66
2023/03/22 03:01:38;;;;;;;5.40;1.50;;;24.60;99.90;;;;;;5027527;28;20064;-65
2023/03/22 03:04:12;;;;;;;8.50;1.23;;;24.80;99.90;;;;;;5023539;28;20152;-66
2023/03/22 03:06:44;;;;;;;8.75;1.40;;;25.00;99.90;;;;;;5025139;28;20049;-66
2023/03/22 03:09:18;;;;;;;8.30;1.65;;;25.00;99.90;;;;;;5026257;28;20029;-66
2023/03/22 03:11:51;;;;;;;4.87;1.63;;;25.00;99.90;;;;;;5031176;28;20075;-66
2023/03/22 03:14:29;;;;;;;5.53;1.35;;;25.00;99.90;;;;;;5032950;28;20478;-66
2023/03/22 03:17:23;;;;;;;3.08;1.30;;;25.00;99.90;;;;;;5029052;28;20108;-65
2023/03/22 03:19:57;;;;;;;9.68;1.35;;;25.00;99.90;;;;;;5026332;28;20475;-64
2023/03/22 03:22:46;;;;;;;9.25;1.48;;;25.30;99.90;;;;;;5030939;28;20033;-64
2023/03/22 03:25:18;;;;;;;7.80;2.22;;;25.50;99.90;;;;;;5025065;28;20013;-65
2023/03/22 03:28:04;;;;;;;7.75;1.48;;;25.70;99.90;;;;;;5026707;28;20025;-66
2023/03/22 03:30:52;;;;;;;8.18;1.45;;;25.80;99.90;;;;;;5022824;28;20406;-65
2023/03/22 03:33:22;;;;;;;8.50;1.48;;;25.90;99.90;;;;;;5036984;28;20032;-65
2023/03/22 03:35:59;;;;;;;3.30;1.10;;;25.90;99.90;;;;;;5030144;28;20107;-64
2023/03/22 03:38:32;;;;;;;8.18;1.63;;;25.90;99.90;;;;;;5022320;28;20402;-66
2023/03/22 03:41:07;;;;;;;4.83;1.67;;;25.90;99.90;;;;;;5024176;28;20033;-67
2023/03/22 03:43:36;;;;;;;7.97;1.75;;;25.60;99.90;;;;;;5011294;28;20279;-66
2023/03/22 03:46:04;;;;;;;9.90;1.50;;;25.40;99.90;;;;;;5010406;28;20029;-66
2023/03/22 03:48:35;;;;;;;9.88;3.20;;;25.30;99.90;;;;;;5026940;28;20025;-65
2023/03/22 03:51:03;;;;;;;8.30;1.90;;;25.50;99.90;;;;;;5024221;28;20025;-64
2023/03/22 03:53:31;;;;;;;6.63;1.88;;;25.60;99.90;;;;;;5020912;28;20490;-65
2023/03/22 03:55:59;;;;;;;10.00;1.75;;;25.70;99.90;;;;;;5022644;28;20045;-66
2023/03/22 03:58:29;;;;;;;6.88;1.40;;;25.90;99.90;;;;;;5034721;28;21373;-64
2023/03/22 04:00:57;;;;;;;9.45;2.05;;;25.90;99.90;;;;;;5023604;28;20025;-65
2023/03/22 04:03:24;;;;;;;5.15;1.73;;;26.10;99.90;;;;;;5026816;28;20022;-64
2023/03/22 04:05:51;;;;;;;5.32;1.27;;;26.30;99.90;;;;;;5016218;28;20030;-64
2023/03/22 04:08:19;;;;;;;5.20;1.30;;;26.20;99.90;;;;;;5023887;28;20087;-64
2023/03/22 04:10:50;;;;;;;6.07;1.52;;;26.30;99.90;;;;;;5029882;28;20052;-64
2023/03/22 04:13:23;;;;;;;5.47;1.35;;;26.30;99.90;;;;;;5029269;28;20029;-64
2023/03/22 04:15:56;;;;;;;6.60;1.17;;;26.40;99.90;;;;;;5021607;28;20033;-63
2023/03/22 04:18:24;;;;;;;9.80;2.45;;;26.30;99.90;;;;;;5025797;28;20117;-64
2023/03/22 04:20:52;;;;;;;6.07;1.20;;;26.40;99.90;;;;;;5020350;28;20029;-65
2023/03/22 04:23:21;;;;;;;5.60;1.30;;;26.50;99.90;;;;;;5036259;28;20065;-64
2023/03/22 04:25:49;;;;;;;5.18;2.47;;;26.60;99.90;;;;;;5024093;28;20807;-64
2023/03/22 04:28:18;;;;;;;5.65;1.52;;;26.70;99.90;;;;;;5030870;28;20064;-64
2023/03/22 04:30:50;;;;;;;6.30;1.30;;;26.80;99.90;;;;;;5025651;28;20137;-64
2023/03/22 04:33:21;;;;;;;5.80;1.00;;;26.90;99.90;;;;;;5017371;28;20052;-64
2023/03/22 04:35:49;;;;;;;9.68;1.38;;;27.00;99.90;;;;;;5028372;28;20029;-64
2023/03/22 04:38:17;;;;;;;4.13;1.20;;;26.90;99.90;;;;;;5027708;28;20021;-64
2023/03/22 04:40:45;;;;;;;5.75;1.48;;;26.90;99.90;;;;;;5026213;28;20127;-65
2023/03/22 04:43:14;;;;;;;4.57;1.17;;;26.90;99.90;;;;;;5033194;28;20025;-65
2023/03/22 04:45:42;;;;;;;6.25;1.80;;;26.70;99.90;;;;;;5022124;28;20489;-65
2023/03/22 04:48:10;;;;;;;6.03;1.10;;;26.60;99.90;;;;;;5021163;28;20120;-65
2023/03/22 04:50:39;;;;;;;7.32;2.03;;;26.40;99.90;;;;;;5033989;28;20030;-65
2023/03/22 04:53:07;;;;;;;4.68;1.10;;;26.30;99.90;;;;;;5026735;28;20368;-65
2023/03/22 04:55:34;;;;;;;4.53;1.45;;;26.20;99.90;;;;;;5016797;28;20043;-65
2023/03/22 04:58:02;;;;;;;3.05;1.08;;;26.10;99.90;;;;;;5017655;28;20029;-65
2023/03/22 05:00:29;;;;;;;2.65;1.25;;;25.90;99.90;;;;;;5025929;28;20038;-64
2023/03/22 05:02:58;;;;;;;4.90;1.20;;;25.90;99.90;;;;;;5029345;28;20017;-67
2023/03/22 05:05:25;;;;;;;6.30;1.60;;;25.70;99.90;;;;;;5031955;28;20033;-64
2023/03/22 05:07:52;;;;;;;4.50;1.30;;;25.60;99.90;;;;;;5038763;28;20064;-65
2023/03/22 05:10:20;;;;;;;3.20;1.08;;;25.50;99.90;;;;;;5031916;28;20066;-65
2023/03/22 05:12:47;;;;;;;5.18;1.20;;;25.40;99.90;;;;;;5029360;28;20392;-64
2023/03/22 05:15:15;;;;;;;6.03;1.08;;;25.30;99.90;;;;;;5039668;28;20028;-64
2023/03/22 05:17:42;;;;;;;4.07;1.63;;;25.20;99.90;;;;;;5032470;28;20052;-64
2023/03/22 05:20:10;;;;;;;5.30;1.92;;;25.10;99.90;;;;;;5032245;28;20032;-65
2023/03/22 05:22:39;;;;;;;4.32;1.35;;;25.00;99.90;;;;;;5027782;28;20084;-65
2023/03/22 05:25:09;;;;;;;4.35;1.60;;;24.90;99.90;;;;;;5022361;28;20116;-64
2023/03/22 05:27:37;;;;;;;3.53;1.30;;;24.80;99.90;;;;;;5032515;28;20018;-64
2023/03/22 05:30:06;;;;;;;14.60;2.47;;;24.70;99.90;;;;;;5045738;28;20482;-64
2023/03/22 05:32:36;;;;;;;8.02;2.33;;;24.60;99.90;;;;;;5030184;28;20410;-65
2023/03/22 05:35:04;;;;;;;10.85;1.55;;;24.30;99.90;;;;;;5031921;28;20025;-64
2023/03/22 05:37:31;;;;;;;30.85;2.97;;;24.10;99.90;;;;;;5030101;28;20040;-64
2023/03/22 05:39:59;;;;;;;8.55;2.13;;;23.80;99.90;;;;;;5034033;28;20592;-64
2023/03/22 05:42:27;;;;;;;6.65;2.50;;;23.60;99.90;;;;;;5030328;28;20021;-64
2023/03/22 05:44:54;;;;;;;8.75;2.40;;;23.40;99.90;;;;;;5048859;28;20028;-64
2023/03/22 05:47:22;;;;;;;13.70;2.42;;;23.30;99.90;;;;;;5040271;28;20017;-64
2023/03/22 05:49:49;;;;;;;7.13;1.67;;;23.20;99.90;;;;;;5037307;28;20067;-63
2023/03/22 05:52:17;;;;;;;8.75;2.67;;;23.20;99.90;;;;;;5031982;28;20072;-64
2023/03/22 05:54:44;;;;;;;8.82;2.50;;;23.10;99.90;;;;;;5035139;28;20116;-64
2023/03/22 05:57:11;;;;;;;4.80;1.55;;;23.10;99.90;;;;;;5045312;28;20024;-63
2023/03/22 05:59:39;;;;;;;6.53;2.13;;;23.00;99.90;;;;;;5039998;28;20033;-64
2023/03/22 06:02:06;;;;;;;11.35;2.08;;;22.90;99.90;;;;;;5021834;28;20065;-63
2023/03/22 06:04:34;;;;;;;8.95;1.92;;;22.80;99.90;;;;;;5043739;28;20052;-64
2023/03/22 06:07:01;;;;;;;7.40;2.60;;;22.70;99.90;;;;;;5027448;28;20056;-63
2023/03/22 06:09:29;;;;;;;10.80;2.30;;;22.50;99.90;;;;;;5038656;28;20063;-63
2023/03/22 06:11:57;;;;;;;11.85;1.83;;;22.40;99.90;;;;;;5029220;28;20042;-63
2023/03/22 06:14:25;;;;;;;7.05;2.40;;;22.30;99.90;;;;;;5034017;28;20025;-63
2023/03/22 06:16:52;;;;;;;9.10;2.33;;;22.20;99.90;;;;;;5034811;28;20037;-63
2023/03/22 06:19:20;;;;;;;6.28;1.48;;;22.10;99.90;;;;;;5030255;28;20021;-64
2023/03/22 06:21:47;;;;;;;10.45;2.28;;;22.00;99.90;;;;;;5025290;28;20036;-63
2023/03/22 06:24:15;;;;;;;5.60;2.15;;;21.90;99.90;;;;;;5040231;28;20474;-64
2023/03/22 06:26:42;;;;;;;8.15;2.25;;;21.80;99.90;;;;;;5035860;28;20031;-63
2023/03/22 06:29:10;;;;;;;10.18;1.90;;;21.70;99.90;;;;;;5040982;28;20175;-63
2023/03/22 06:31:38;;;;;;;8.35;1.95;;;21.70;99.90;;;;;;5030636;28;20037;-64
2023/03/22 06:34:06;;;;;;;8.32;2.13;;;21.60;99.90;;;;;;5033449;28;20100;-64
2023/03/22 06:36:34;;;;;;;9.98;2.45;;;21.60;99.90;;;;;;5045872;28;20032;-63
2023/03/22 06:39:03;;;;;;;9.25;2.92;;;21.60;99.90;;;;;;5029309;28;20029;-64
2023/03/22 06:41:31;;;;;;;10.45;1.88;;;21.60;99.90;;;;;;5029672;28;20801;-64
2023/03/22 06:43:59;;;;;;;6.13;2.00;;;21.70;99.90;;;;;;5039145;28;20029;-67
2023/03/22 06:46:26;;;;;;;6.32;2.00;;;21.70;99.90;;;;;;5031972;28;20131;-64
2023/03/22 06:48:54;;;;;;;5.70;1.85;;;21.80;99.90;;;;;;5033970;28;20104;-64
2023/03/22 06:51:21;;;;;;;4.85;1.83;;;21.80;99.90;;;;;;5028818;28;20076;-65
2023/03/22 06:53:49;;;;;;;7.47;1.90;;;21.80;99.90;;;;;;5036640;28;20100;-67
2023/03/22 06:56:16;;;;;;;9.45;2.60;;;21.80;99.90;;;;;;5039540;28;20025;-66
2023/03/22 06:58:44;;;;;;;7.88;2.17;;;21.90;99.90;;;;;;5039797;28;20086;-66
2023/03/22 07:01:11;;;;;;;6.72;1.90;;;21.90;99.90;;;;;;5039967;28;20021;-66
2023/03/22 07:03:39;;;;;;;6.25;2.08;;;21.80;99.90;;;;;;5033551;28;20029;-67
2023/03/22 07:06:08;;;;;;;6.40;2.05;;;21.80;99.90;;;;;;5028344;28;20060;-67
2023/03/22 07:08:36;;;;;;;8.63;3.08;;;21.70;99.90;;;;;;5045605;28;20024;-67
2023/03/22 07:11:05;;;;;;;9.15;2.80;;;21.60;99.90;;;;;;5030049;28;20172;-67
2023/03/22 07:13:32;;;;;;;8.15;2.08;;;21.50;99.90;;;;;;5041929;28;20029;-67
2023/03/22 07:16:01;;;;;;;5.75;2.22;;;21.50;99.90;;;;;;5032608;28;20478;-67
2023/03/22 07:18:29;;;;;;;5.93;2.15;;;21.50;99.90;;;;;;5025950;28;20033;-66
2023/03/22 07:20:57;;;;;;;9.73;2.95;;;21.40;99.90;;;;;;5037851;28;20120;-66
2023/03/22 07:23:25;;;;;;;9.32;2.10;;;21.40;99.90;;;;;;5030377;28;20536;-68
2023/03/22 07:25:54;;;;;;;8.93;2.85;;;21.30;99.90;;;;;;5032835;28;20022;-66
2023/03/22 07:28:22;;;;;;;5.68;2.05;;;21.30;99.90;;;;;;5040844;28;20025;-65
2023/03/22 07:30:58;;;;;;;5.05;2.17;;;21.20;99.90;;;;;;5024647;28;20144;-66
2023/03/22 07:33:26;;;;;;;5.65;2.22;;;21.20;99.90;;;;;;5028057;28;20017;-66
2023/03/22 07:35:54;;;;;;;10.38;2.70;;;21.10;99.90;;;;;;5022257;28;20022;-66
2023/03/22 07:38:21;;;;;;;10.25;3.17;;;21.10;99.90;;;;;;5032192;28;20497;-66
2023/03/22 07:40:53;;;;;;;6.90;2.65;;;21.00;99.90;;;;;;5027457;28;20025;-66
2023/03/22 07:43:21;;;;;;;7.50;2.83;;;21.00;99.90;;;;;;5019024;28;20937;-66
2023/03/22 07:45:50;;;;;;;7.63;2.08;;;20.90;99.90;;;;;;5018029;28;20115;-66
2023/03/22 07:48:22;;;;;;;6.05;2.05;;;20.90;99.90;;;;;;5031265;28;20634;-66
2023/03/22 07:50:54;;;;;;;6.00;1.92;;;20.90;99.90;;;;;;5028491;28;20645;-66
2023/03/22 07:53:21;;;;;;;6.38;2.88;;;20.90;99.90;;;;;;5026098;28;20502;-66
2023/03/22 07:55:49;;;;;;;6.70;2.13;;;20.90;99.90;;;;;;5039088;28;20494;-66
2023/03/22 07:58:16;;;;;;;6.95;2.95;;;20.90;99.90;;;;;;5028714;28;20392;-66
2023/03/22 08:00:44;;;;;;;14.82;3.13;;;20.90;99.90;;;;;;5025633;28;20025;-65
2023/03/22 08:03:12;;;;;;;8.63;2.78;;;20.90;99.90;;;;;;5023191;28;20382;-64
2023/03/22 08:05:41;;;;;;;8.75;3.00;;;20.80;99.90;;;;;;5022434;28;20025;-66
2023/03/22 08:08:09;;;;;;;10.82;3.33;;;20.80;99.90;;;;;;5027261;28;20052;-66
2023/03/22 08:10:37;;;;;;;9.45;2.70;;;20.70;99.90;;;;;;5026985;28;20026;-68
2023/03/22 08:13:04;;;;;;;7.25;2.95;;;20.70;99.90;;;;;;5031919;28;20025;-68
2023/03/22 08:15:32;;;;;;;9.73;2.80;;;20.70;99.90;;;;;;5026557;28;20021;-68
2023/03/22 08:18:03;;;;;;;6.43;3.28;;;20.60;99.90;;;;;;5032779;28;20021;-67
2023/03/22 08:20:30;;;;;;;10.38;3.10;;;20.60;99.90;;;;;;5031764;28;20017;-68
2023/03/22 08:22:58;;;;;;;6.28;2.72;;;20.50;99.90;;;;;;5025534;28;20017;-67
2023/03/22 08:25:25;;;;;;;7.53;2.50;;;20.50;99.90;;;;;;5027796;28;20029;-67
2023/03/22 08:27:53;;;;;;;7.30;3.17;;;20.50;99.90;;;;;;5027754;28;20026;-65
2023/03/22 08:30:21;;;;;;;9.35;3.05;;;20.50;99.90;;;;;;5026409;28;20022;-66
2023/03/22 08:32:48;;;;;;;8.00;2.63;;;20.50;99.90;;;;;;5025418;28;20022;-60
2023/03/22 08:35:16;;;;;;;7.32;2.33;;;20.40;99.90;;;;;;5038212;28;20044;-60
2023/03/22 08:37:43;;;;;;;7.32;3.17;;;20.40;99.90;;;;;;5031487;28;20014;-61
2023/03/22 08:40:12;;;;;;;8.52;2.67;;;20.40;99.90;;;;;;5026728;28;20033;-61
2023/03/22 08:42:39;;;;;;;7.18;2.83;;;20.40;99.90;;;;;;5026889;28;20481;-61
2023/03/22 08:45:09;;;;;;;8.38;3.15;;;20.30;99.90;;;;;;5028958;28;20501;-60
2023/03/22 08:47:36;;;;;;;8.85;3.00;;;20.30;99.90;;;;;;5027713;28;20776;-61
2023/03/22 08:50:04;;;;;;;11.38;3.63;;;20.30;99.90;;;;;;5032546;28;20051;-60
2023/03/22 08:52:32;;;;;;;10.50;3.10;;;20.30;99.90;;;;;;5029816;28;20396;-61
2023/03/22 08:55:00;;;;;;;10.32;3.53;;;20.40;99.90;;;;;;5020061;28;20032;-61
2023/03/22 08:57:28;;;;;;;9.32;2.92;;;20.40;99.90;;;;;;5028226;28;20025;-60
2023/03/22 08:59:56;;;;;;;10.82;3.40;;;20.40;99.90;;;;;;5029529;28;20433;-61
2023/03/22 09:02:25;;;;;;;11.90;4.30;;;20.40;99.90;;;;;;5024875;28;20079;-61
2023/03/22 09:04:52;;;;;;;10.70;3.47;;;20.40;99.90;;;;;;5031095;28;20033;-60
2023/03/22 09:07:21;;;;;;;9.50;3.13;;;20.40;99.90;;;;;;5028125;28;20064;-61
2023/03/22 09:09:48;;;;;;;8.48;4.43;;;20.40;99.90;;;;;;5030307;28;20036;-60
2023/03/22 09:12:16;;;;;;;10.60;3.42;;;20.40;99.90;;;;;;5028170;28;20088;-63
2023/03/22 09:14:45;;;;;;;10.85;3.70;;;20.30;99.90;;;;;;5036141;28;20049;-60
2023/03/22 09:17:13;;;;;;;9.50;4.00;;;20.30;99.90;;;;;;5035259;28;20064;-60
2023/03/22 09:19:40;;;;;;;10.23;4.55;;;20.40;99.90;;;;;;5029973;28;20149;-60
2023/03/22 09:22:08;;;;;;;14.40;4.88;;;20.40;99.90;;;;;;5028228;28;20029;-61
2023/03/22 09:24:35;;;;;;;12.45;4.82;;;20.40;99.90;;;;;;5044841;28;20032;-61
2023/03/22 09:27:03;;;;;;;14.23;4.78;;;20.40;99.90;;;;;;5040541;28;20029;-61
2023/03/22 09:29:30;;;;;;;9.77;3.78;;;20.40;99.90;;;;;;5027544;28;20041;-60
2023/03/22 09:31:58;;;;;;;11.50;4.07;;;20.40;99.90;;;;;;5026798;28;20029;-60
2023/03/22 09:34:26;;;;;;;10.88;3.90;;;20.40;99.90;;;;;;5044612;28;20024;-60
2023/03/22 09:36:54;;;;;;;9.55;3.70;;;20.40;99.90;;;;;;5028331;28;20037;-60
2023/03/22 09:39:21;;;;;;;11.23;3.30;;;20.30;99.90;;;;;;5039472;28;20157;-60
2023/03/22 09:42:00;;;;;;;10.55;5.10;;;20.30;99.90;;;;;;5044899;28;20037;-62
2023/03/22 09:44:31;;;;;;;8.73;3.78;;;20.30;99.90;;;;;;5027018;28;20453;-60
2023/03/22 09:47:02;;;;;;;8.85;4.13;;;20.30;99.90;;;;;;5029034;28;20033;-61
2023/03/22 09:49:38;;;;;;;8.90;4.20;;;20.30;99.90;;;;;;5040844;28;20033;-60
2023/03/22 09:52:15;;;;;;;12.45;4.22;;;20.30;99.90;;;;;;5031358;28;20141;-61
2023/03/22 09:54:45;;;;;;;8.55;4.72;;;20.30;99.90;;;;;;5021083;28;20037;-64
2023/03/22 09:57:25;;;;;;;10.85;3.65;;;20.20;99.90;;;;;;5033504;28;20371;-65
2023/03/22 10:00:13;;;;;;;9.23;3.92;;;20.20;99.90;;;;;;5026033;28;20029;-65
2023/03/22 10:03:09;;;;;;;10.10;3.50;;;20.20;99.90;;;;;;5028929;28;20059;-65
2023/03/22 10:05:46;;;;;;;9.68;3.97;;;20.20;99.90;;;;;;5035875;28;20478;-65
2023/03/22 10:08:44;;;;;;;8.55;3.95;;;20.20;99.90;;;;;;5018897;28;20041;-65
2023/03/22 10:11:24;;;;;;;9.65;3.92;;;20.20;99.90;;;;;;5033193;28;20047;-65
2023/03/22 10:14:44;;;;;;;6.80;3.70;;;20.20;99.90;;;;;;5032909;28;20028;-65
2023/03/22 10:17:16;;;;;;;10.40;4.57;;;20.10;99.90;;;;;;5005473;28;20026;-64
2023/03/22 10:19:57;;;;;;;8.27;3.70;;;20.00;99.90;;;;;;5004480;28;20045;-65
2023/03/22 10:22:30;;;;;;;8.98;3.35;;;20.00;99.90;;;;;;5021545;28;20100;-65
2023/03/22 10:24:59;;;;;;;10.65;3.63;;;20.00;99.90;;;;;;5017595;28;20060;-65
2023/03/22 10:27:28;;;;;;;8.02;3.55;;;20.00;99.90;;;;;;5032099;28;20029;-65
2023/03/22 10:30:19;;;;;;;9.50;3.50;;;19.90;99.90;;;;;;5022806;28;20029;-65
2023/03/22 10:33:02;;;;;;;10.65;3.35;;;19.90;99.90;;;;;;5023633;28;20041;-65
2023/03/22 10:35:31;;;;;;;5.47;2.22;;;19.80;99.90;;;;;;5025049;28;20486;-65
2023/03/22 10:38:01;;;;;;;11.38;3.67;;;19.80;99.90;;;;;;5025600;28;20129;-65
2023/03/22 10:40:35;;;;;;;10.45;3.03;;;19.80;99.90;;;;;;5024056;28;20037;-65
2023/03/22 10:43:17;;;;;;;5.28;3.15;;;19.70;99.90;;;;;;5022607;28;20021;-65
2023/03/22 10:45:44;;;;;;;9.35;3.33;;;19.70;99.90;;;;;;5032732;28;20033;-65
2023/03/22 10:48:29;;;;;;;7.45;3.25;;;19.70;99.90;;;;;;5025099;28;20043;-65
2023/03/22 10:50:57;;;;;;;7.20;3.45;;;19.70;99.90;;;;;;5035358;28;20135;-65
2023/03/22 10:53:37;;;;;;;12.20;3.30;;;19.70;99.90;;;;;;5016727;28;20112;-64
2023/03/22 10:56:10;;;;;;;10.73;3.10;;;19.70;99.90;;;;;;5026447;28;20050;-65
2023/03/22 10:58:38;;;;;;;9.15;3.08;;;19.70;99.90;;;;;;5023875;28;20111;-65
2023/03/22 11:01:11;;;;;;;8.52;3.95;;;19.70;99.90;;;;;;5030516;28;20063;-65
2023/03/22 11:03:44;;;;;;;9.52;3.17;;;19.70;99.90;;;;;;5027609;28;20510;-65
2023/03/22 11:06:14;;;;;;;11.40;3.40;;;19.70;99.90;;;;;;5025120;28;20394;-62
2023/03/22 11:08:48;;;;;;;10.75;3.50;;;19.70;99.90;;;;;;5015955;28;20029;-63
2023/03/22 11:11:24;;;;;;;14.95;5.15;;;19.70;99.90;;;;;;5019447;28;20066;-63
2023/03/22 11:13:55;;;;;;;11.15;3.25;;;19.70;99.90;;;;;;5027204;28;20116;-63
2023/03/22 11:16:23;;;;;;;12.05;3.45;;;19.60;99.90;;;;;;5033844;28;20048;-63
2023/03/22 11:18:51;;;;;;;6.78;3.60;;;19.60;99.90;;;;;;5020758;28;20112;-63
2023/03/22 11:21:23;;;;;;;13.38;3.35;;;19.70;99.90;;;;;;5020316;28;20129;-63
2023/03/22 11:24:06;;;;;;;11.20;3.10;;;19.60;99.90;;;;;;5024352;28;20032;-62
2023/03/22 11:26:36;;;;;;;11.38;3.50;;;19.60;99.90;;;;;;5028254;28;20040;-63
2023/03/22 11:29:21;;;;;;;11.90;3.63;;;19.60;99.90;;;;;;5041016;28;20436;-63
2023/03/22 11:31:56;;;;;;;11.15;3.45;;;19.50;99.90;;;;;;5017113;28;20048;-63
2023/03/22 11:34:27;;;;;;;12.70;3.13;;;19.50;99.90;;;;;;5023135;28;20025;-63
2023/03/22 11:36:58;;;;;;;7.35;3.20;;;19.50;99.90;;;;;;5017637;28;20079;-63
2023/03/22 11:39:28;;;;;;;8.32;3.00;;;19.40;99.90;;;;;;5019264;28;20021;-63
2023/03/22 11:42:05;;;;;;;10.15;3.40;;;19.30;99.90;;;;;;5018828;28;20072;-62
2023/03/22 11:44:36;;;;;;;6.78;3.00;;;19.20;99.90;;;;;;5024071;28;20688;-63
2023/03/22 11:47:07;;;;;;;13.25;3.20;;;19.10;99.90;;;;;;5033678;28;20017;-63
2023/03/22 11:49:44;;;;;;;5.78;3.63;;;19.10;99.90;;;;;;5020587;28;20022;-63
2023/03/22 11:52:25;;;;;;;7.97;2.90;;;18.90;99.90;;;;;;5033751;28;20494;-62
2023/03/22 11:54:54;;;;;;;10.65;4.00;;;18.80;99.90;;;;;;5028948;28;20034;-62
2023/03/22 11:57:28;;;;;;;18.23;4.68;;;18.70;99.90;;;;;;5025603;28;20087;-63
2023/03/22 12:00:10;;;;;;;15.25;4.22;;;18.70;99.90;;;;;;5018660;28;20025;-62
2023/03/22 12:02:53;;;;;;;15.23;5.03;;;18.70;99.90;;;;;;5031316;28;20029;-63
2023/03/22 12:05:26;;;;;;;12.68;5.22;;;18.80;99.90;;;;;;5021502;28;20022;-63
2023/03/22 12:08:09;;;;;;;11.90;4.82;;;18.80;99.90;;;;;;5021769;28;20045;-64
2023/03/22 12:10:47;;;;;;;12.82;4.88;;;18.70;99.90;;;;;;5017762;28;20037;-64
2023/03/22 12:13:17;;;;;;;13.15;5.43;;;18.80;99.90;;;;;;5023333;28;20029;-65
2023/03/22 12:16:00;;;;;;;19.67;5.43;;;18.80;99.90;;;;;;5025653;28;20137;-63
2023/03/22 12:18:30;;;;;;;12.10;5.25;;;18.70;99.90;;;;;;5038754;28;20043;-64
2023/03/22 12:21:00;;;;;;;12.57;4.32;;;18.70;99.90;;;;;;5028884;28;20105;-65
2023/03/22 12:23:36;;;;;;;8.75;4.32;;;18.60;99.90;;;;;;5023034;28;20037;-65
2023/03/22 12:26:20;;;;;;;12.65;4.60;;;18.60;99.90;;;;;;5029148;28;20104;-63
2023/03/22 12:29:20;;;;;;;9.30;3.78;;;18.40;99.90;;;;;;5026236;28;20033;-63
2023/03/22 12:32:02;;;;;;;13.93;4.35;;;18.40;99.90;;;;;;4989547;28;20676;-63
2023/03/22 12:34:53;;;;;;;;;;;;;;;;;;;;;
2023/03/22 12:37:34;;;;;;;17.73;5.95;;;18.30;99.90;;;;;;5029727;28;20044;-63
2023/03/22 12:40:32;;;;;;;14.70;6.20;;;18.40;99.90;;;;;;5033766;28;20021;-64
2023/03/22 12:43:05;;;;;;;17.23;6.20;;;18.60;99.90;;;;;;5009099;28;20056;-63
2023/03/22 12:45:43;;;;;;;13.85;5.97;;;18.60;99.90;;;;;;5037086;28;20079;-63
2023/03/22 12:48:39;;;;;;;10.15;5.07;;;18.60;99.90;;;;;;5027222;28;20041;-63
2023/03/22 12:51:10;;;;;;;9.85;4.80;;;18.70;99.90;;;;;;4994828;28;20170;-64
2023/03/22 12:53:45;;;;;;;13.73;5.15;;;18.70;99.90;;;;;;5044347;28;20058;-65
2023/03/22 12:56:18;;;;;;;14.50;5.13;;;18.60;99.90;;;;;;5023817;28;20435;-64
2023/03/22 12:59:11;;;;;;;10.23;4.50;;;18.60;99.90;;;;;;5028906;28;20383;-65
2023/03/22 13:01:54;;;;;;;10.30;5.30;;;18.60;99.90;;;;;;5030117;28;20053;-65
2023/03/22 13:04:30;;;;;;;7.75;4.55;;;18.50;99.90;;;;;;5028297;28;20105;-64
2023/03/22 13:07:15;;;;;;;12.52;4.03;;;18.50;99.90;;;;;;5035261;28;20079;-66
2023/03/22 13:09:43;;;;;;;;;;;18.50;99.90;;;;;;5029698;28;20113;-64